createdAt,value
2018-04-02T00:00:58.051Z,1.95
2018-04-02T00:03:23.901Z,1.98
2018-04-02T00:05:49.769Z,1.83
2018-04-02T00:08:15.600Z,1.88
2018-04-02T00:10:41.447Z,1.92
2018-04-02T00:13:07.290Z,1.96
2018-04-02T00:15:33.164Z,2.01
2018-04-02T00:17:59.025Z,1.97
2018-04-02T00:20:24.891Z,2.01
2018-04-02T00:22:50.752Z,2.06
2018-04-02T00:25:16.612Z,2.05
2018-04-02T00:27:42.439Z,2.03
2018-04-02T00:30:08.304Z,2.03
2018-04-02T00:32:34.165Z,2.06
2018-04-02T00:35:00.009Z,2.00
2018-04-02T00:37:25.875Z,2.05
2018-04-02T00:39:51.720Z,2.13
2018-04-02T00:42:17.576Z,2.06
2018-04-02T00:44:43.452Z,2.03
2018-04-02T00:47:09.308Z,2.06
2018-04-02T00:49:35.151Z,2.08
2018-04-02T00:52:01.032Z,2.11
2018-04-02T00:54:26.870Z,2.09
2018-04-02T00:56:52.709Z,2.10
2018-04-02T00:59:18.551Z,2.02
2018-04-02T01:01:44.396Z,2.00
2018-04-02T01:04:10.269Z,1.97
2018-04-02T01:06:36.132Z,2.00
2018-04-02T01:09:02.023Z,2.01
2018-04-02T01:11:27.865Z,1.95
2018-04-02T01:13:53.732Z,1.97
2018-04-02T01:16:19.578Z,2.00
2018-04-02T01:18:45.445Z,1.95
2018-04-02T01:21:11.291Z,1.84
2018-04-02T01:23:37.170Z,1.84
2018-04-02T01:26:03.034Z,1.82
2018-04-02T01:28:28.924Z,1.85
2018-04-02T01:30:54.768Z,1.88
2018-04-02T01:33:20.616Z,1.86
2018-04-02T01:35:46.492Z,1.92
2018-04-02T01:38:12.319Z,1.91
2018-04-02T01:40:38.147Z,1.93
2018-04-02T01:43:04.009Z,1.96
2018-04-02T01:45:29.863Z,1.94
2018-04-02T01:47:55.706Z,1.91
2018-04-02T01:50:21.556Z,1.86
2018-04-02T01:52:47.420Z,1.81
2018-04-02T01:55:13.254Z,1.76
2018-04-02T01:57:39.126Z,1.69
2018-04-02T02:00:05.023Z,1.49
2018-04-02T02:02:30.892Z,1.27
2018-04-02T02:04:56.719Z,1.13
2018-04-02T02:07:22.566Z,1.00
2018-04-02T02:09:48.412Z,0.89
2018-04-02T02:12:14.255Z,0.82
2018-04-02T02:14:40.129Z,0.78
2018-04-02T02:17:05.959Z,0.70
2018-04-02T02:19:32.025Z,0.64
2018-04-02T02:21:57.673Z,0.61
2018-04-02T02:24:23.503Z,0.62
2018-04-02T02:26:49.362Z,0.76
2018-04-02T02:29:15.182Z,0.77
2018-04-02T02:31:41.048Z,0.87
2018-04-02T02:34:06.884Z,1.04
2018-04-02T02:36:32.744Z,1.12
2018-04-02T02:38:58.585Z,1.25
2018-04-02T02:41:24.434Z,1.22
2018-04-02T02:43:50.276Z,1.28
2018-04-02T02:46:16.143Z,1.34
2018-04-02T02:48:41.992Z,1.39
2018-04-02T02:51:07.839Z,1.49
2018-04-02T02:53:33.711Z,1.55
2018-04-02T02:55:59.569Z,1.56
2018-04-02T02:58:25.437Z,1.61
2018-04-02T03:00:51.293Z,1.64
2018-04-02T03:03:17.146Z,1.64
2018-04-02T03:05:43.585Z,1.68
2018-04-02T03:08:09.434Z,1.68
2018-04-02T03:10:35.281Z,1.70
2018-04-02T03:13:01.129Z,1.77
2018-04-02T03:15:26.983Z,1.87
2018-04-02T03:17:52.819Z,1.84
2018-04-02T03:20:18.668Z,1.91
2018-04-02T03:22:44.508Z,1.93
2018-04-02T03:25:10.385Z,1.86
2018-04-02T03:27:36.216Z,1.97
2018-04-02T03:30:02.079Z,2.07
2018-04-02T03:32:27.930Z,2.13
2018-04-02T03:34:53.787Z,2.11
2018-04-02T03:37:19.657Z,2.15
2018-04-02T03:39:45.500Z,2.16
2018-04-02T03:42:11.355Z,2.14
2018-04-02T03:44:37.195Z,2.17
2018-04-02T03:47:03.055Z,2.21
2018-04-02T03:49:28.887Z,2.23
2018-04-02T03:51:54.734Z,2.19
2018-04-02T03:54:20.602Z,2.21
2018-04-02T03:56:46.474Z,2.14
2018-04-02T03:59:12.341Z,2.12
2018-04-02T04:01:38.188Z,2.25
2018-04-02T04:04:04.049Z,2.30
2018-04-02T04:06:29.900Z,2.34
2018-04-02T04:08:55.774Z,2.42
2018-04-02T04:11:21.628Z,2.40
2018-04-02T04:13:47.488Z,2.39
2018-04-02T04:16:13.331Z,2.34
2018-04-02T04:18:39.175Z,2.36
2018-04-02T04:21:05.042Z,2.35
2018-04-02T04:23:30.889Z,2.27
2018-04-02T04:25:56.735Z,2.33
2018-04-02T04:28:22.581Z,2.44
2018-04-02T04:30:48.444Z,2.44
2018-04-02T04:33:14.293Z,2.40
2018-04-02T04:35:40.115Z,2.48
2018-04-02T04:38:05.979Z,2.57
2018-04-02T04:40:31.821Z,2.52
2018-04-02T04:42:57.668Z,2.56
2018-04-02T04:45:23.506Z,2.57
2018-04-02T04:47:49.355Z,2.54
2018-04-02T04:50:15.211Z,2.54
2018-04-02T04:52:41.150Z,2.54
2018-04-02T04:55:07.017Z,2.63
2018-04-02T04:57:32.875Z,2.62
2018-04-02T04:59:58.723Z,2.59
2018-04-02T05:02:24.582Z,2.60
2018-04-02T05:04:50.437Z,2.61
2018-04-02T05:07:16.288Z,2.61
2018-04-02T05:09:42.146Z,2.62
2018-04-02T05:12:08.028Z,2.62
2018-04-02T05:14:33.866Z,2.61
2018-04-02T05:16:59.716Z,2.61
2018-04-02T05:19:25.581Z,2.63
2018-04-02T05:21:51.440Z,2.69
2018-04-02T05:24:17.285Z,2.74
2018-04-02T05:26:43.131Z,2.77
2018-04-02T05:29:08.981Z,2.74
2018-04-02T05:31:34.873Z,2.77
2018-04-02T05:34:00.736Z,2.79
2018-04-02T05:36:26.588Z,2.79
2018-04-02T05:38:52.479Z,2.82
2018-04-02T05:41:18.364Z,2.83
2018-04-02T05:43:44.249Z,2.86
2018-04-02T05:46:10.113Z,2.87
2018-04-02T05:48:35.979Z,2.92
2018-04-02T05:51:01.873Z,2.96
2018-04-02T05:53:27.710Z,2.97
2018-04-02T05:55:53.570Z,2.99
2018-04-02T05:58:19.400Z,3.02
2018-04-02T06:00:45.262Z,3.03
2018-04-02T06:03:11.105Z,3.12
2018-04-02T06:05:36.997Z,3.16
2018-04-02T06:08:02.840Z,3.19
2018-04-02T06:10:28.704Z,3.21
2018-04-02T06:12:54.550Z,3.22
2018-04-02T06:15:20.425Z,3.23
2018-04-02T06:17:46.261Z,3.27
2018-04-02T06:20:12.141Z,3.26
2018-04-02T06:22:37.972Z,3.32
2018-04-02T06:25:03.798Z,3.39
2018-04-02T06:27:29.638Z,3.38
2018-04-02T06:29:55.485Z,3.45
2018-04-02T06:32:21.328Z,3.46
2018-04-02T06:34:47.176Z,3.51
2018-04-02T06:37:13.074Z,3.50
2018-04-02T06:39:38.953Z,3.51
2018-04-02T06:42:04.827Z,3.57
2018-04-02T06:44:30.675Z,3.61
2018-04-02T06:46:56.582Z,3.65
2018-04-02T06:49:22.427Z,3.62
2018-04-02T06:51:48.267Z,3.70
2018-04-02T06:54:14.156Z,3.72
2018-04-02T06:56:40.070Z,3.74
2018-04-02T06:59:05.958Z,3.82
2018-04-02T07:01:31.842Z,3.83
2018-04-02T07:03:57.704Z,3.91
2018-04-02T07:06:23.560Z,3.97
2018-04-02T07:08:49.431Z,4.00
2018-04-02T07:11:15.313Z,4.05
2018-04-02T07:13:41.174Z,4.10
2018-04-02T07:16:07.029Z,4.14
2018-04-02T07:18:33.008Z,4.14
2018-04-02T07:20:58.931Z,4.22
2018-04-02T07:23:24.911Z,4.27
2018-04-02T07:25:50.972Z,4.24
2018-04-02T07:28:16.920Z,4.31
2018-04-02T07:30:42.829Z,4.42
2018-04-02T07:33:08.667Z,4.53
2018-04-02T07:35:34.643Z,4.53
2018-04-02T07:38:00.634Z,4.59
2018-04-02T07:40:26.482Z,4.57
2018-04-02T07:42:52.425Z,4.57
2018-04-02T07:45:18.293Z,4.56
2018-04-02T07:47:44.179Z,4.57
2018-04-02T07:50:10.130Z,4.63
2018-04-02T07:52:36.182Z,4.63
2018-04-02T07:55:02.067Z,4.71
2018-04-02T07:57:27.966Z,4.68
2018-04-02T07:59:53.938Z,4.73
2018-04-02T08:02:19.802Z,4.83
2018-04-02T08:04:45.887Z,4.89
2018-04-02T08:07:11.714Z,4.88
2018-04-02T08:09:37.578Z,4.90
2018-04-02T08:12:03.720Z,4.86
2018-04-02T08:14:29.806Z,4.91
2018-04-02T08:16:55.842Z,5.07
2018-04-02T08:19:21.753Z,5.17
2018-04-02T08:21:47.818Z,5.16
2018-04-02T08:24:13.732Z,5.21
2018-04-02T08:26:39.656Z,5.26
2018-04-02T08:29:05.555Z,5.24
2018-04-02T08:31:31.423Z,5.32
2018-04-02T08:33:57.284Z,5.38
2018-04-02T08:36:23.173Z,5.30
2018-04-02T08:38:49.139Z,5.37
2018-04-02T08:41:14.950Z,5.46
2018-04-02T08:43:40.827Z,5.54
2018-04-02T08:46:06.705Z,5.58
2018-04-02T08:48:32.568Z,5.60
2018-04-02T08:50:58.489Z,5.68
2018-04-02T08:53:24.634Z,5.76
2018-04-02T08:55:50.512Z,5.79
2018-04-02T08:58:16.364Z,5.93
2018-04-02T09:00:42.295Z,5.98
2018-04-02T09:03:08.157Z,6.09
2018-04-02T09:05:34.072Z,6.19
2018-04-02T09:07:59.989Z,6.34
2018-04-02T09:10:25.959Z,6.38
2018-04-02T09:12:51.811Z,6.42
2018-04-02T09:15:18.302Z,6.46
2018-04-02T09:17:44.181Z,6.48
2018-04-02T09:20:10.108Z,6.57
2018-04-02T09:22:36.001Z,6.61
2018-04-02T09:25:01.922Z,6.77
2018-04-02T09:27:27.797Z,6.84
2018-04-02T09:29:53.648Z,6.83
2018-04-02T09:32:19.560Z,6.74
2018-04-02T09:34:45.436Z,6.63
2018-04-02T09:37:26.290Z,6.75
2018-04-02T09:39:52.135Z,6.82
2018-04-02T09:42:18.061Z,6.89
2018-04-02T09:44:43.946Z,6.94
2018-04-02T09:47:09.830Z,6.93
2018-04-02T09:49:35.745Z,6.94
2018-04-02T09:52:01.622Z,7.08
2018-04-02T09:54:27.511Z,7.18
2018-04-02T09:56:53.351Z,7.29
2018-04-02T09:59:19.770Z,7.32
2018-04-02T10:01:45.662Z,7.37
2018-04-02T10:04:11.596Z,7.48
2018-04-02T10:06:37.472Z,7.54
2018-04-02T10:09:03.389Z,7.54
2018-04-02T10:11:29.281Z,7.50
2018-04-02T10:13:55.136Z,7.55
2018-04-02T10:16:21.020Z,7.59
2018-04-02T10:18:47.372Z,7.68
2018-04-02T10:21:13.301Z,7.67
2018-04-02T10:23:39.145Z,7.81
2018-04-02T10:26:05.059Z,8.00
2018-04-02T10:28:30.970Z,8.06
2018-04-02T10:30:56.813Z,8.15
2018-04-02T10:33:22.708Z,8.33
2018-04-02T10:35:48.578Z,8.34
2018-04-02T10:38:14.468Z,8.30
2018-04-02T10:40:40.370Z,8.50
2018-04-02T10:43:06.226Z,8.67
2018-04-02T10:45:32.170Z,8.80
2018-04-02T10:47:58.062Z,8.88
2018-04-02T10:50:23.946Z,9.10
2018-04-02T10:52:49.808Z,9.26
2018-04-02T10:55:15.698Z,9.23
2018-04-02T10:57:41.557Z,9.19
2018-04-02T11:00:07.426Z,9.09
2018-04-02T11:02:33.309Z,9.25
2018-04-02T11:04:59.192Z,9.43
2018-04-02T11:07:25.060Z,9.70
2018-04-02T11:09:50.940Z,9.61
2018-04-02T11:12:16.789Z,9.90
2018-04-02T11:14:42.673Z,10.40
2018-04-02T11:17:08.581Z,10.64
2018-04-02T11:19:34.464Z,10.48
2018-04-02T11:22:00.365Z,10.56
2018-04-02T11:24:26.212Z,10.91
2018-04-02T11:26:52.083Z,10.88
2018-04-02T11:29:17.958Z,10.75
2018-04-02T11:31:43.815Z,10.78
2018-04-02T11:34:09.721Z,10.56
2018-04-02T11:36:35.568Z,10.45
2018-04-02T11:39:01.444Z,10.71
2018-04-02T11:41:27.294Z,10.69
2018-04-02T11:43:53.188Z,10.49
2018-04-02T11:46:19.090Z,10.50
2018-04-02T11:48:44.998Z,10.36
2018-04-02T11:51:10.918Z,10.47
2018-04-02T11:53:36.792Z,10.54
2018-04-02T11:56:02.666Z,10.61
2018-04-02T11:58:28.566Z,10.84
2018-04-02T12:00:54.444Z,10.69
2018-04-02T12:03:20.304Z,10.82
2018-04-02T12:05:46.181Z,11.04
2018-04-02T12:08:12.029Z,11.03
2018-04-02T12:10:37.977Z,10.94
2018-04-02T12:13:03.865Z,10.82
2018-04-02T12:15:29.750Z,10.73
2018-04-02T12:17:55.597Z,10.96
2018-04-02T12:20:21.524Z,11.16
2018-04-02T12:22:47.445Z,11.20
2018-04-02T12:25:13.357Z,11.19
2018-04-02T12:27:39.311Z,11.27
2018-04-02T12:30:05.206Z,11.24
2018-04-02T12:32:31.100Z,11.21
2018-04-02T12:34:56.958Z,11.08
2018-04-02T12:37:23.693Z,11.31
2018-04-02T12:39:49.565Z,11.30
2018-04-02T12:42:15.610Z,11.35
2018-04-02T12:44:41.561Z,11.43
2018-04-02T12:47:07.524Z,11.46
2018-04-02T12:49:33.411Z,11.50
2018-04-02T12:51:59.276Z,11.39
2018-04-02T12:54:25.175Z,11.64
2018-04-02T12:56:51.070Z,11.57
2018-04-02T12:59:16.963Z,11.58
2018-04-02T13:01:42.824Z,11.49
2018-04-02T13:04:08.719Z,11.72
2018-04-02T13:06:35.438Z,11.66
2018-04-02T13:09:01.313Z,11.72
2018-04-02T13:11:27.190Z,11.66
2018-04-02T13:13:53.311Z,11.85
2018-04-02T13:16:19.194Z,11.78
2018-04-02T13:18:45.077Z,11.79
2018-04-02T13:21:11.000Z,12.00
2018-04-02T13:23:36.869Z,12.09
2018-04-02T13:26:02.754Z,11.90
2018-04-02T13:28:28.658Z,11.85
2018-04-02T13:30:54.532Z,12.02
2018-04-02T13:33:20.419Z,13.22
2018-04-02T13:35:46.309Z,13.98
2018-04-02T13:38:12.200Z,14.51
2018-04-02T13:40:38.100Z,14.33
2018-04-02T13:43:04.032Z,14.13
2018-04-02T13:45:29.936Z,14.01
2018-04-02T13:47:55.799Z,12.39
2018-04-02T13:50:21.667Z,12.17
2018-04-02T13:52:47.549Z,11.86
2018-04-02T13:55:13.429Z,11.82
2018-04-02T13:57:39.354Z,11.65
2018-04-02T14:00:05.239Z,11.55
2018-04-02T14:02:31.116Z,11.53
2018-04-02T14:04:56.990Z,11.44
2018-04-02T14:07:22.852Z,11.41
2018-04-02T14:09:48.792Z,11.38
2018-04-02T14:12:14.637Z,11.45
2018-04-02T14:14:40.577Z,11.51
2018-04-02T14:17:06.458Z,11.57
2018-04-02T14:19:32.981Z,11.53
2018-04-02T14:21:58.909Z,11.58
2018-04-02T14:24:25.790Z,11.62
2018-04-02T14:26:51.689Z,11.63
2018-04-02T14:29:17.605Z,11.61
2018-04-02T14:31:43.476Z,11.61
2018-04-02T14:34:09.357Z,11.65
2018-04-02T14:36:35.229Z,11.65
2018-04-02T14:39:01.111Z,11.59
2018-04-02T14:41:26.970Z,11.56
2018-04-02T14:43:52.913Z,11.56
2018-04-02T14:46:18.801Z,11.52
2018-04-02T14:48:44.762Z,11.55
2018-04-02T14:51:10.656Z,11.60
2018-04-02T14:53:36.633Z,11.68
2018-04-02T14:56:02.513Z,11.73
2018-04-02T14:58:28.410Z,11.73
2018-04-02T15:00:54.307Z,11.67
2018-04-02T15:03:20.187Z,11.65
2018-04-02T15:05:46.050Z,11.63
2018-04-02T15:08:11.955Z,11.57
2018-04-02T15:10:38.378Z,11.47
2018-04-02T15:13:04.276Z,11.37
2018-04-02T15:15:30.124Z,11.33
2018-04-02T15:17:55.983Z,11.31
2018-04-02T15:20:21.896Z,11.36
2018-04-02T15:22:47.809Z,11.34
2018-04-02T15:25:13.704Z,11.37
2018-04-02T15:27:39.578Z,11.37
2018-04-02T15:30:05.468Z,11.38
2018-04-02T15:32:31.372Z,11.33
2018-04-02T15:34:57.252Z,11.32
2018-04-02T15:37:23.110Z,11.25
2018-04-02T15:39:49.055Z,11.19
2018-04-02T15:42:14.955Z,11.16
2018-04-02T15:44:40.816Z,11.07
2018-04-02T15:47:06.739Z,11.03
2018-04-02T15:49:32.658Z,11.05
2018-04-02T15:51:58.551Z,11.04
2018-04-02T15:54:24.456Z,11.04
2018-04-02T15:56:50.311Z,11.03
2018-04-02T15:59:16.207Z,11.03
2018-04-02T16:01:42.092Z,11.04
2018-04-02T16:04:08.055Z,11.08
2018-04-02T16:06:33.933Z,11.08
2018-04-02T16:08:59.845Z,11.04
2018-04-02T16:11:25.792Z,10.97
2018-04-02T16:13:51.782Z,10.93
2018-04-02T16:16:17.734Z,10.91
2018-04-02T16:18:43.659Z,10.90
2018-04-02T16:21:09.595Z,10.85
2018-04-02T16:23:35.458Z,10.81
2018-04-02T16:26:01.369Z,10.79
2018-04-02T16:28:27.220Z,10.79
2018-04-02T16:30:53.088Z,10.74
2018-04-02T16:33:18.989Z,10.74
2018-04-02T16:35:44.923Z,10.76
2018-04-02T16:38:10.823Z,10.72
2018-04-02T16:40:36.685Z,10.73
2018-04-02T16:43:02.688Z,10.71
2018-04-02T16:45:28.566Z,10.67
2018-04-02T16:47:54.451Z,10.65
2018-04-02T16:50:20.345Z,10.67
2018-04-02T16:52:46.214Z,10.64
2018-04-02T16:55:12.158Z,10.59
2018-04-02T16:57:38.069Z,10.56
2018-04-02T17:00:03.979Z,10.54
2018-04-02T17:02:29.870Z,10.52
2018-04-02T17:04:55.775Z,10.42
2018-04-02T17:07:21.637Z,10.36
2018-04-02T17:09:47.599Z,10.35
2018-04-02T17:12:13.463Z,10.31
2018-04-02T17:14:39.390Z,10.33
2018-04-02T17:17:05.284Z,10.29
2018-04-02T17:19:31.208Z,10.30
2018-04-02T17:21:57.181Z,10.21
2018-04-02T17:24:23.124Z,10.24
2018-04-02T17:26:49.081Z,10.15
2018-04-02T17:29:14.977Z,10.10
2018-04-02T17:31:40.858Z,10.04
2018-04-02T17:34:06.816Z,10.01
2018-04-02T17:36:33.225Z,9.91
2018-04-02T17:38:59.131Z,9.79
2018-04-02T17:41:25.106Z,9.72
2018-04-02T17:43:51.103Z,9.70
2018-04-02T17:46:17.100Z,9.67
2018-04-02T17:48:44.070Z,9.66
2018-04-02T17:51:10.321Z,9.62
2018-04-02T17:53:36.007Z,9.65
2018-04-02T17:56:01.950Z,9.67
2018-04-02T17:58:27.821Z,9.61
2018-04-02T18:00:53.782Z,9.57
2018-04-02T18:03:19.733Z,9.59
2018-04-02T18:05:45.661Z,9.57
2018-04-02T18:08:11.604Z,9.54
2018-04-02T18:10:37.625Z,9.57
2018-04-02T18:13:04.213Z,9.54
2018-04-02T18:15:30.195Z,9.50
2018-04-02T18:17:56.165Z,9.46
2018-04-02T18:20:22.028Z,9.41
2018-04-02T18:22:47.989Z,9.43
2018-04-02T18:25:14.235Z,9.38
2018-04-02T18:27:40.242Z,9.37
2018-04-02T18:30:06.231Z,9.32
2018-04-02T18:32:32.108Z,9.32
2018-04-02T18:34:58.120Z,9.29
2018-04-02T18:37:24.700Z,9.27
2018-04-02T18:39:51.388Z,9.26
2018-04-02T18:42:17.305Z,9.24
2018-04-02T18:44:43.295Z,9.21
2018-04-02T18:47:09.178Z,9.14
2018-04-02T18:49:35.126Z,9.13
2018-04-02T18:52:01.017Z,9.11
2018-04-02T18:54:26.924Z,9.13
2018-04-02T18:56:52.823Z,9.10
2018-04-02T18:59:19.681Z,9.11
2018-04-02T19:01:45.595Z,9.11
2018-04-02T19:04:11.495Z,9.13
2018-04-02T19:06:37.414Z,9.11
2018-04-02T19:09:05.215Z,9.11
2018-04-02T19:11:31.140Z,9.10
2018-04-02T19:13:58.048Z,9.10
2018-04-02T19:16:23.983Z,9.11
2018-04-02T19:18:50.039Z,9.11
2018-04-02T19:21:15.938Z,9.10
2018-04-02T19:23:41.875Z,9.09
2018-04-02T19:26:07.776Z,9.10
2018-04-02T19:28:34.527Z,9.09
2018-04-02T19:31:00.368Z,9.06
2018-04-02T19:33:26.244Z,9.06
2018-04-02T19:35:52.111Z,9.06
2018-04-02T19:38:18.048Z,9.04
2018-04-02T19:40:44.549Z,9.02
2018-04-02T19:43:10.427Z,9.04
2018-04-02T19:45:36.431Z,9.03
2018-04-02T19:48:02.349Z,9.04
2018-04-02T19:50:28.291Z,9.05
2018-04-02T19:52:54.193Z,9.06
2018-04-02T19:55:21.541Z,9.08
2018-04-02T19:57:47.532Z,9.07
2018-04-02T20:00:13.437Z,9.08
2018-04-02T20:02:39.370Z,9.01
2018-04-02T20:05:05.254Z,8.99
2018-04-02T20:07:32.069Z,8.94
2018-04-02T20:09:58.876Z,8.92
2018-04-02T20:12:24.798Z,8.93
2018-04-02T20:14:50.724Z,8.90
2018-04-02T20:17:16.652Z,8.86
2018-04-02T20:19:42.627Z,8.80
2018-04-02T20:22:08.575Z,8.83
2018-04-02T20:24:34.586Z,8.91
2018-04-02T20:27:00.614Z,8.94
2018-04-02T20:29:26.882Z,8.94
2018-04-02T20:31:52.774Z,9.00
2018-04-02T20:34:18.985Z,8.97
2018-04-02T20:36:44.986Z,8.95
2018-04-02T20:39:10.968Z,8.92
2018-04-02T20:41:37.831Z,8.92
2018-04-02T20:44:04.472Z,8.90
2018-04-02T20:46:30.495Z,8.94
2018-04-02T20:48:56.371Z,8.94
2018-04-02T20:51:22.534Z,8.97
2018-04-02T20:53:49.430Z,9.00
2018-04-02T20:56:15.358Z,8.97
2018-04-02T20:58:41.264Z,8.92
2018-04-02T21:01:07.128Z,8.90
2018-04-02T21:03:33.038Z,8.94
2018-04-02T21:05:58.987Z,8.91
2018-04-02T21:08:24.907Z,8.89
2018-04-02T21:10:50.809Z,8.93
2018-04-02T21:13:16.741Z,8.91
2018-04-02T21:15:42.639Z,8.92
2018-04-02T21:18:08.516Z,8.90
2018-04-02T21:20:34.404Z,8.90
2018-04-02T21:23:00.287Z,8.93
2018-04-02T21:25:26.190Z,8.93
2018-04-02T21:27:52.076Z,8.92
2018-04-02T21:30:18.031Z,8.92
2018-04-02T21:32:43.889Z,8.99
2018-04-02T21:35:09.767Z,9.05
2018-04-02T21:37:35.617Z,9.05
2018-04-02T21:40:01.490Z,9.02
2018-04-02T21:42:27.402Z,9.01
2018-04-02T21:44:53.282Z,9.01
2018-04-02T21:47:19.170Z,9.01
2018-04-02T21:49:45.022Z,9.00
2018-04-02T21:52:10.885Z,9.06
2018-04-02T21:54:36.779Z,9.03
2018-04-02T21:57:02.677Z,9.09
2018-04-02T21:59:28.537Z,9.03
2018-04-02T22:01:54.379Z,9.06
2018-04-02T22:04:20.241Z,9.04
2018-04-02T22:06:58.974Z,9.03
2018-04-02T22:09:24.840Z,9.01
2018-04-02T22:11:50.682Z,9.04
2018-04-02T22:14:16.520Z,9.08
2018-04-02T22:16:42.376Z,9.11
2018-04-02T22:19:08.225Z,9.12
2018-04-02T22:21:34.097Z,9.11
2018-04-02T22:23:59.924Z,9.12
2018-04-02T22:26:25.771Z,9.20
2018-04-02T22:28:51.623Z,9.19
2018-04-02T22:31:17.489Z,9.25
2018-04-02T22:33:43.333Z,9.24
2018-04-02T22:36:09.219Z,9.19
2018-04-02T22:38:35.088Z,9.19
2018-04-02T22:41:00.943Z,9.20
2018-04-02T22:43:28.306Z,9.16
2018-04-02T22:45:54.172Z,9.15
2018-04-02T22:48:20.060Z,9.15
2018-04-02T22:50:45.956Z,9.11
2018-04-02T22:53:11.803Z,9.40
2018-04-02T22:55:37.657Z,9.18
2018-04-02T22:58:03.545Z,9.08
2018-04-02T23:00:29.399Z,9.01
2018-04-02T23:02:55.256Z,8.95
2018-04-02T23:05:21.124Z,8.87
2018-04-02T23:07:46.961Z,8.86
2018-04-02T23:10:12.816Z,8.80
2018-04-02T23:12:38.656Z,8.78
2018-04-02T23:15:04.501Z,8.76
2018-04-02T23:17:30.348Z,8.76
2018-04-02T23:19:56.187Z,8.72
2018-04-02T23:22:34.376Z,8.69
2018-04-02T23:25:00.228Z,8.65
2018-04-02T23:27:26.072Z,8.59
2018-04-02T23:29:51.907Z,8.57
2018-04-02T23:32:17.765Z,8.51
2018-04-02T23:34:43.609Z,8.46
2018-04-02T23:37:09.453Z,8.43
2018-04-02T23:39:35.301Z,8.39
2018-04-02T23:42:01.165Z,8.37
2018-04-02T23:44:27.021Z,8.33
2018-04-02T23:46:52.909Z,8.31
2018-04-02T23:49:18.751Z,8.33
2018-04-02T23:51:44.595Z,8.34
2018-04-02T23:54:10.459Z,8.35
2018-04-02T23:56:36.316Z,8.32
2018-04-02T23:59:02.190Z,8.31
